Time;durP1;ratioP1;P1;durP2;ratioP2;P2;SDS_P1;SDS_P2;PMS_P1;PMS_P2;Temp;Humidity;BMP_temperature;BMP_pressure;BME280_temperature;BME280_humidity;BME280_pressure;Samples;Min_cycle;Max_cycle;Signal;HPM_P1;HPM_P2
2021/08/24 00:02:13;;;;;;;5.07;3.42;;;16.70;99.90;;;;;;5077907;28;20036;-87
2021/08/24 00:04:39;;;;;;;5.75;3.58;;;16.60;99.90;;;;;;5077390;28;20471;-87
2021/08/24 00:07:04;;;;;;;7.72;3.55;;;16.70;99.90;;;;;;5077281;28;20073;-87
2021/08/24 00:09:31;;;;;;;5.57;3.60;;;16.70;99.90;;;;;;5077053;28;20506;-86
2021/08/24 00:11:57;;;;;;;8.15;3.30;;;16.60;99.90;;;;;;5076774;28;20043;-86
2021/08/24 00:14:25;;;;;;;7.20;3.78;;;16.60;99.90;;;;;;5094853;28;20024;-87
2021/08/24 00:16:51;;;;;;;5.30;3.42;;;16.60;99.90;;;;;;5094821;28;20027;-87
2021/08/24 00:19:17;;;;;;;8.70;3.45;;;16.70;99.90;;;;;;5076643;28;20024;-87
2021/08/24 00:21:43;;;;;;;5.63;3.92;;;16.80;99.90;;;;;;5076695;28;20412;-86
2021/08/24 00:24:10;;;;;;;7.90;4.18;;;16.70;99.90;;;;;;5076649;28;20111;-87
2021/08/24 00:26:36;;;;;;;6.63;4.13;;;16.60;99.90;;;;;;5076561;28;20028;-86
2021/08/24 00:29:03;;;;;;;6.63;3.58;;;16.60;99.90;;;;;;5077065;28;20041;-87
2021/08/24 00:31:29;;;;;;;5.10;3.90;;;16.60;99.90;;;;;;5076538;28;20028;-87
2021/08/24 00:33:54;;;;;;;6.13;4.28;;;16.60;99.90;;;;;;5076295;28;20054;-87
2021/08/24 00:36:21;;;;;;;6.10;3.50;;;16.60;99.90;;;;;;5094429;28;20425;-87
2021/08/24 00:38:47;;;;;;;6.45;3.78;;;16.50;99.90;;;;;;5076281;28;20119;-87
2021/08/24 00:41:13;;;;;;;7.65;4.00;;;16.50;99.90;;;;;;5076232;28;20024;-87
2021/08/24 00:43:41;;;;;;;4.38;3.90;;;16.50;99.90;;;;;;5076327;28;20036;-87
2021/08/24 00:46:28;;;;;;;6.30;3.70;;;16.50;99.90;;;;;;5076281;28;20028;-87
2021/08/24 00:48:57;;;;;;;4.80;3.58;;;16.60;99.90;;;;;;5092631;28;20134;-87
2021/08/24 00:51:25;;;;;;;4.00;2.88;;;16.50;99.90;;;;;;5075976;28;20024;-87
2021/08/24 00:53:51;;;;;;;11.40;3.15;;;16.60;99.90;;;;;;5076678;28;20073;-86
2021/08/24 00:56:18;;;;;;;3.35;2.80;;;16.80;99.90;;;;;;5094178;28;20027;-87
2021/08/24 00:58:44;;;;;;;3.38;2.78;;;16.50;99.90;;;;;;5075796;28;20031;-87
2021/08/24 01:01:10;;;;;;;5.22;3.30;;;16.70;99.90;;;;;;5075878;28;20024;-87
2021/08/24 01:03:40;;;;;;;6.30;2.70;;;16.70;99.90;;;;;;5075849;28;20400;-86
2021/08/24 01:06:47;;;;;;;5.20;3.28;;;16.50;99.90;;;;;;5094100;28;20027;-87
2021/08/24 01:09:23;;;;;;;4.90;2.97;;;16.40;99.90;;;;;;4992491;28;20034;-86
2021/08/24 01:12:16;;;;;;;5.25;3.03;;;16.40;99.90;;;;;;4975374;28;20113;-87
2021/08/24 01:15:04;;;;;;;4.47;3.20;;;16.40;99.90;;;;;;5049891;28;20024;-86
2021/08/24 01:18:26;;;;;;;5.22;3.38;;;16.40;99.90;;;;;;5075663;28;20023;-86
2021/08/24 01:21:22;;;;;;;6.63;3.10;;;16.20;99.90;;;;;;5055045;28;20498;-87
2021/08/24 01:23:57;;;;;;;5.20;3.10;;;16.30;99.90;;;;;;5075440;28;20035;-86
2021/08/24 01:26:42;;;;;;;8.40;3.30;;;16.40;99.90;;;;;;5094157;28;20189;-86
2021/08/24 01:29:44;;;;;;;6.85;3.05;;;16.30;99.90;;;;;;5093634;28;20024;-87
2021/08/24 01:32:37;;;;;;;7.38;3.58;;;16.20;99.90;;;;;;5093604;28;20021;-86
2021/08/24 01:35:13;;;;;;;4.00;3.00;;;16.10;99.90;;;;;;5075530;28;20038;-86
2021/08/24 01:38:01;;;;;;;6.43;3.45;;;16.20;99.90;;;;;;5093474;28;20024;-87
2021/08/24 01:40:42;;;;;;;4.72;3.35;;;16.30;99.90;;;;;;5075444;28;20094;-86
2021/08/24 01:43:15;;;;;;;5.57;4.07;;;16.20;99.90;;;;;;5075335;28;20059;-87
2021/08/24 01:45:47;;;;;;;4.65;3.78;;;16.40;99.90;;;;;;5075516;28;20544;-86
2021/08/24 01:48:28;;;;;;;5.63;4.45;;;16.40;99.90;;;;;;5075999;28;20123;-87
2021/08/24 01:51:02;;;;;;;10.20;3.65;;;16.30;99.90;;;;;;5089605;28;20153;-87
2021/08/24 01:53:48;;;;;;;6.90;4.13;;;16.30;99.90;;;;;;5098096;28;20047;-86
2021/08/24 01:56:25;;;;;;;8.70;4.18;;;16.30;99.90;;;;;;5098341;28;20032;-86
2021/08/24 01:58:59;;;;;;;8.90;4.50;;;16.30;99.90;;;;;;5095248;28;20021;-86
2021/08/24 02:01:35;;;;;;;7.68;3.85;;;16.00;99.90;;;;;;5075791;28;20021;-86
2021/08/24 02:04:04;;;;;;;5.90;4.00;;;16.10;99.90;;;;;;5075682;28;20040;-86
2021/08/24 02:06:35;;;;;;;4.78;3.70;;;16.00;99.90;;;;;;5093574;28;20040;-86
2021/08/24 02:09:07;;;;;;;6.60;3.83;;;16.10;99.90;;;;;;5075178;28;20027;-86
2021/08/24 02:11:35;;;;;;;7.25;3.40;;;16.10;99.90;;;;;;5075141;28;20240;-86
2021/08/24 02:14:07;;;;;;;4.30;2.97;;;16.00;99.90;;;;;;5075057;28;20031;-86
2021/08/24 02:16:34;;;;;;;4.93;3.20;;;16.20;99.90;;;;;;5075042;28;20152;-86
2021/08/24 02:19:11;;;;;;;6.45;3.03;;;16.00;99.90;;;;;;5074820;28;20020;-86
2021/08/24 02:21:46;;;;;;;6.10;3.65;;;16.00;99.90;;;;;;5076126;28;20063;-86
2021/08/24 02:24:17;;;;;;;5.45;3.03;;;15.90;99.90;;;;;;5097415;28;20024;-86
2021/08/24 02:26:46;;;;;;;4.72;3.17;;;16.00;99.90;;;;;;5079028;28;20028;-86
2021/08/24 02:29:11;;;;;;;5.50;2.88;;;15.90;99.90;;;;;;5078829;28;20042;-86
2021/08/24 02:32:02;;;;;;;5.70;3.15;;;15.90;99.90;;;;;;5078803;28;20498;-86
2021/08/24 02:34:49;;;;;;;5.72;3.00;;;15.80;99.90;;;;;;5096931;28;20024;-86
2021/08/24 02:37:46;;;;;;;5.53;2.80;;;15.90;99.90;;;;;;5078698;28;20024;-86
2021/08/24 02:40:12;;;;;;;4.05;2.50;;;15.80;99.90;;;;;;5078649;28;20200;-86
2021/08/24 02:42:52;;;;;;;6.40;2.92;;;15.70;99.90;;;;;;5078610;28;20024;-86
2021/08/24 02:45:40;;;;;;;3.78;2.63;;;15.70;99.90;;;;;;5078535;28;20024;-86
2021/08/24 02:48:10;;;;;;;5.15;3.22;;;15.50;99.90;;;;;;5078430;28;20412;-86
2021/08/24 02:50:36;;;;;;;5.10;3.05;;;15.50;99.90;;;;;;5078716;28;20024;-86
2021/08/24 02:53:03;;;;;;;7.20;2.97;;;15.60;99.90;;;;;;5078447;28;20122;-86
2021/08/24 02:55:29;;;;;;;3.95;2.67;;;15.70;99.90;;;;;;5078359;28;20019;-86
2021/08/24 02:57:56;;;;;;;6.85;3.17;;;15.70;99.90;;;;;;5078375;28;20174;-87
2021/08/24 03:00:21;;;;;;;4.90;2.97;;;15.70;99.90;;;;;;5078212;28;20056;-87
2021/08/24 03:02:47;;;;;;;6.00;2.70;;;15.60;99.90;;;;;;5078061;28;20077;-87
2021/08/24 03:05:13;;;;;;;3.17;2.50;;;15.60;99.90;;;;;;5077980;28;20111;-87
2021/08/24 03:07:40;;;;;;;4.15;2.50;;;15.70;99.90;;;;;;5096833;28;20031;-87
2021/08/24 03:10:13;;;;;;;7.03;3.10;;;15.70;99.90;;;;;;5078058;28;20032;-87
2021/08/24 03:13:05;;;;;;;12.27;3.60;;;15.60;99.90;;;;;;5077844;28;20024;-87
2021/08/24 03:15:51;;;;;;;4.35;2.80;;;15.50;99.90;;;;;;5077103;28;20028;-87
2021/08/24 03:18:41;;;;;;;7.15;3.10;;;15.50;99.90;;;;;;5096009;28;20020;-87
2021/08/24 03:21:12;;;;;;;5.63;2.95;;;15.40;99.90;;;;;;5077741;28;20074;-87
2021/08/24 03:23:42;;;;;;;7.22;3.00;;;15.50;99.90;;;;;;5095968;28;20126;-87
2021/08/24 03:26:09;;;;;;;4.63;2.90;;;15.30;99.90;;;;;;5077698;28;20073;-86
2021/08/24 03:28:38;;;;;;;4.82;3.08;;;15.20;99.90;;;;;;5077639;28;20078;-87
2021/08/24 03:31:04;;;;;;;4.70;2.80;;;15.20;99.90;;;;;;5077547;28;20028;-87
2021/08/24 03:33:29;;;;;;;5.00;2.70;;;15.20;99.90;;;;;;5076693;28;20020;-88
2021/08/24 03:35:55;;;;;;;3.88;2.83;;;15.30;99.90;;;;;;5077491;28;20055;-87
2021/08/24 03:38:21;;;;;;;8.88;3.53;;;15.50;99.90;;;;;;5077426;28;20020;-87
2021/08/24 03:40:46;;;;;;;6.65;2.75;;;15.40;99.90;;;;;;5077459;28;20073;-87
2021/08/24 03:43:12;;;;;;;11.13;3.47;;;15.40;99.90;;;;;;5077352;28;20047;-87
2021/08/24 03:45:38;;;;;;;6.82;3.05;;;15.20;99.90;;;;;;5077243;28;20028;-87
2021/08/24 03:48:04;;;;;;;5.93;3.53;;;15.20;99.90;;;;;;5077138;28;20059;-87
2021/08/24 03:50:30;;;;;;;3.78;2.60;;;15.00;99.90;;;;;;5077246;28;20028;-87
2021/08/24 03:52:56;;;;;;;8.73;3.20;;;14.80;99.90;;;;;;5077150;28;20504;-87
2021/08/24 03:55:21;;;;;;;4.50;2.92;;;14.70;99.90;;;;;;5077196;28;20472;-87
2021/08/24 03:57:47;;;;;;;5.53;2.88;;;14.60;99.90;;;;;;5077210;28;20101;-87
2021/08/24 04:00:13;;;;;;;9.25;3.20;;;14.60;99.90;;;;;;5085649;28;20012;-87
2021/08/24 04:02:39;;;;;;;9.73;3.25;;;14.30;99.90;;;;;;5099749;28;20035;-86
2021/08/24 04:05:06;;;;;;;4.20;2.90;;;14.40;99.90;;;;;;5090430;28;20027;-87
2021/08/24 04:07:32;;;;;;;6.28;2.90;;;14.40;99.90;;;;;;5078719;28;20426;-87
2021/08/24 04:09:58;;;;;;;6.78;2.90;;;14.60;99.90;;;;;;5096064;28;20099;-87
2021/08/24 04:12:24;;;;;;;6.13;2.63;;;14.70;99.90;;;;;;5077080;28;20119;-87
2021/08/24 04:14:50;;;;;;;6.95;2.42;;;14.80;99.90;;;;;;5077157;28;20024;-87
2021/08/24 04:17:16;;;;;;;4.82;2.35;;;14.90;99.90;;;;;;5076809;28;20411;-87
2021/08/24 04:19:41;;;;;;;4.18;2.50;;;15.10;99.90;;;;;;5076651;28;20027;-87
2021/08/24 04:22:10;;;;;;;9.00;3.08;;;15.30;99.90;;;;;;5076724;28;20024;-86
2021/08/24 04:24:36;;;;;;;7.82;3.03;;;15.40;99.90;;;;;;5094726;28;20026;-87
2021/08/24 04:27:03;;;;;;;4.85;2.72;;;15.30;99.90;;;;;;5076594;28;20024;-86
2021/08/24 04:29:28;;;;;;;3.97;2.38;;;15.10;99.90;;;;;;5076451;28;20023;-86
2021/08/24 04:31:56;;;;;;;4.80;2.42;;;15.10;99.90;;;;;;5076489;28;20024;-86
2021/08/24 04:34:22;;;;;;;9.45;2.53;;;15.00;99.90;;;;;;5076318;28;20028;-86
2021/08/24 04:36:48;;;;;;;2.72;2.17;;;15.00;99.90;;;;;;5076297;28;20024;-87
2021/08/24 04:39:13;;;;;;;4.47;2.53;;;15.00;99.90;;;;;;5076342;28;20020;-86
2021/08/24 04:41:39;;;;;;;4.18;2.85;;;15.00;99.90;;;;;;5076267;28;20476;-87
2021/08/24 04:44:05;;;;;;;3.75;2.25;;;14.70;99.90;;;;;;5076076;28;20054;-87
2021/08/24 04:46:30;;;;;;;8.15;2.80;;;14.80;99.90;;;;;;5075374;28;20024;-86
2021/08/24 04:48:56;;;;;;;5.90;2.53;;;14.60;99.90;;;;;;5077101;28;20048;-86
2021/08/24 04:51:22;;;;;;;6.07;2.92;;;14.60;99.90;;;;;;5076065;28;20024;-87
2021/08/24 04:53:48;;;;;;;4.70;2.35;;;14.90;99.90;;;;;;5075861;28;20056;-87
2021/08/24 04:56:14;;;;;;;4.63;2.33;;;14.90;99.90;;;;;;5094107;28;20024;-87
2021/08/24 04:58:40;;;;;;;5.63;2.95;;;15.00;99.90;;;;;;5076049;28;20474;-86
2021/08/24 05:01:06;;;;;;;4.57;2.60;;;15.10;99.90;;;;;;5076052;28;20089;-86
2021/08/24 05:03:32;;;;;;;4.53;2.33;;;15.20;99.90;;;;;;5075945;28;20024;-86
2021/08/24 05:05:57;;;;;;;3.28;2.28;;;15.00;99.90;;;;;;5075868;28;20023;-86
2021/08/24 05:08:23;;;;;;;6.28;2.60;;;14.80;99.90;;;;;;5076228;28;20388;-86
2021/08/24 05:10:49;;;;;;;4.97;3.00;;;14.70;99.90;;;;;;5075856;28;20024;-86
2021/08/24 05:13:15;;;;;;;8.98;2.90;;;14.60;99.90;;;;;;5075648;28;20031;-86
2021/08/24 05:15:41;;;;;;;4.25;2.50;;;14.50;99.90;;;;;;5076132;28;20043;-86
2021/08/24 05:18:06;;;;;;;7.20;2.03;;;14.50;99.90;;;;;;5075566;28;20495;-86
2021/08/24 05:20:32;;;;;;;4.43;2.38;;;14.60;99.90;;;;;;5075856;28;20039;-86
2021/08/24 05:22:58;;;;;;;4.15;2.65;;;14.80;99.90;;;;;;5075657;28;20035;-86
2021/08/24 05:25:25;;;;;;;14.02;7.82;;;14.90;99.90;;;;;;5075458;28;20035;-86
2021/08/24 05:27:51;;;;;;;4.45;2.70;;;14.50;99.90;;;;;;5075520;28;20035;-86
2021/08/24 05:30:23;;;;;;;3.90;2.47;;;14.20;99.90;;;;;;5075363;28;20027;-86
2021/08/24 05:32:49;;;;;;;6.90;2.50;;;14.20;99.90;;;;;;5093843;28;20026;-85
2021/08/24 05:35:16;;;;;;;4.97;2.58;;;14.20;99.90;;;;;;5075429;28;20024;-86
2021/08/24 05:37:42;;;;;;;5.97;2.53;;;14.10;99.90;;;;;;5075400;28;20032;-86
2021/08/24 05:40:10;;;;;;;3.10;2.10;;;14.10;99.90;;;;;;5075412;28;20024;-86
2021/08/24 05:42:35;;;;;;;6.03;2.75;;;14.20;99.90;;;;;;5075331;28;20028;-85
2021/08/24 05:45:02;;;;;;;6.28;3.00;;;14.20;99.90;;;;;;5075296;28;20372;-86
2021/08/24 05:47:29;;;;;;;7.45;2.58;;;14.20;99.90;;;;;;5075232;28;20055;-86
2021/08/24 05:49:55;;;;;;;6.75;2.70;;;14.40;99.90;;;;;;5093664;28;20024;-86
2021/08/24 05:52:21;;;;;;;4.40;2.45;;;14.60;99.90;;;;;;5075145;28;20396;-86
2021/08/24 05:54:49;;;;;;;4.05;2.75;;;14.60;99.90;;;;;;5075132;28;20024;-86
2021/08/24 05:57:17;;;;;;;5.43;3.10;;;14.60;99.90;;;;;;5079319;28;20023;-85
2021/08/24 05:59:43;;;;;;;4.70;2.60;;;14.50;99.90;;;;;;5081751;28;20110;-85
2021/08/24 06:02:08;;;;;;;6.43;3.08;;;14.60;99.90;;;;;;5081813;28;20457;-86
2021/08/24 06:04:35;;;;;;;7.50;2.97;;;14.70;99.90;;;;;;5081849;28;20044;-86
2021/08/24 06:07:01;;;;;;;3.83;2.67;;;14.60;99.90;;;;;;5082096;28;20129;-86
2021/08/24 06:09:26;;;;;;;3.92;2.78;;;14.80;99.90;;;;;;5082673;28;20020;-85
2021/08/24 06:11:52;;;;;;;3.92;2.63;;;15.00;99.90;;;;;;5116427;28;20025;-86
2021/08/24 06:14:21;;;;;;;6.63;2.50;;;15.10;99.90;;;;;;5115195;28;20024;-85
2021/08/24 06:16:54;;;;;;;6.35;3.33;;;15.20;99.90;;;;;;5083412;28;20024;-84
2021/08/24 06:19:20;;;;;;;4.47;3.38;;;15.30;99.90;;;;;;5100331;28;20460;-84
2021/08/24 06:21:46;;;;;;;5.50;3.38;;;15.30;99.90;;;;;;5081522;28;20029;-84
2021/08/24 06:24:11;;;;;;;4.40;3.30;;;15.40;99.90;;;;;;5100043;28;20023;-84
2021/08/24 06:26:37;;;;;;;7.10;3.63;;;15.30;99.90;;;;;;5081499;28;20068;-84
2021/08/24 06:29:04;;;;;;;6.93;3.38;;;15.30;99.90;;;;;;5081436;28;20117;-84
2021/08/24 06:31:31;;;;;;;9.68;3.63;;;15.30;99.90;;;;;;5081450;28;20494;-84
2021/08/24 06:33:58;;;;;;;4.65;2.90;;;15.50;99.90;;;;;;5081377;28;20479;-84
2021/08/24 06:36:25;;;;;;;8.57;3.33;;;15.60;99.90;;;;;;5081329;28;20030;-84
2021/08/24 06:38:51;;;;;;;7.68;3.28;;;15.50;99.90;;;;;;5081327;28;20024;-84
2021/08/24 06:41:18;;;;;;;6.50;3.55;;;15.50;99.90;;;;;;5081289;28;20020;-83
2021/08/24 06:43:44;;;;;;;6.00;3.20;;;15.60;99.90;;;;;;5081311;28;20039;-84
2021/08/24 06:46:09;;;;;;;6.30;3.20;;;15.60;99.90;;;;;;5081261;28;20037;-84
2021/08/24 06:48:35;;;;;;;10.70;3.80;;;15.70;99.90;;;;;;5081093;28;20134;-84
2021/08/24 06:51:01;;;;;;;9.05;3.90;;;15.70;99.90;;;;;;5081209;28;20024;-84
2021/08/24 06:53:27;;;;;;;8.25;4.40;;;15.60;99.90;;;;;;5081180;28;20024;-82
2021/08/24 06:55:53;;;;;;;8.32;4.20;;;15.80;99.90;;;;;;5081199;28;20384;-83
2021/08/24 06:58:19;;;;;;;5.68;3.22;;;15.80;99.90;;;;;;5081536;28;20039;-83
2021/08/24 07:00:47;;;;;;;7.47;3.45;;;15.80;99.90;;;;;;5099398;28;20138;-83
2021/08/24 07:03:13;;;;;;;9.68;3.60;;;16.00;99.90;;;;;;5081163;28;20062;-83
2021/08/24 07:05:45;;;;;;;8.20;3.63;;;16.00;99.90;;;;;;5081122;28;20054;-83
2021/08/24 07:08:12;;;;;;;7.15;4.10;;;16.10;99.90;;;;;;5097085;28;20028;-83
2021/08/24 07:10:38;;;;;;;7.97;4.05;;;16.00;99.90;;;;;;5077945;28;20028;-83
2021/08/24 07:13:04;;;;;;;11.13;3.30;;;16.00;99.90;;;;;;5096031;28;20386;-83
2021/08/24 07:15:32;;;;;;;12.02;3.65;;;16.00;99.90;;;;;;5077856;28;20115;-83
2021/08/24 07:17:58;;;;;;;7.93;3.47;;;16.20;99.90;;;;;;5077774;28;20428;-83
2021/08/24 07:20:25;;;;;;;5.72;3.35;;;16.20;99.90;;;;;;5095915;28;20141;-82
2021/08/24 07:22:52;;;;;;;5.65;3.65;;;16.20;99.90;;;;;;5096452;28;20024;-83
2021/08/24 07:25:21;;;;;;;6.38;3.40;;;16.20;99.90;;;;;;5095834;28;20024;-82
2021/08/24 07:27:48;;;;;;;6.90;3.50;;;16.40;99.90;;;;;;5077610;28;20020;-82
2021/08/24 07:30:15;;;;;;;5.18;3.35;;;16.50;99.90;;;;;;5077612;28;20064;-83
2021/08/24 07:32:41;;;;;;;6.88;3.45;;;16.60;99.90;;;;;;5077461;28;20032;-82
2021/08/24 07:35:08;;;;;;;7.15;3.40;;;16.50;99.90;;;;;;5095693;28;20085;-82
2021/08/24 07:37:33;;;;;;;6.10;3.28;;;16.40;99.90;;;;;;5077332;28;20392;-83
2021/08/24 07:39:59;;;;;;;7.10;3.42;;;16.40;99.90;;;;;;5077453;28;20023;-83
2021/08/24 07:42:25;;;;;;;5.32;3.40;;;16.60;99.90;;;;;;5077387;28;20454;-83
2021/08/24 07:44:51;;;;;;;7.15;3.30;;;16.60;99.90;;;;;;5077367;28;20056;-83
2021/08/24 07:47:16;;;;;;;5.57;3.38;;;16.80;99.90;;;;;;5077058;28;20040;-83
2021/08/24 07:49:46;;;;;;;8.30;2.97;;;16.90;99.90;;;;;;5077268;28;20071;-83
2021/08/24 07:52:13;;;;;;;6.03;3.10;;;16.80;99.90;;;;;;5095147;28;20028;-82
2021/08/24 07:54:38;;;;;;;3.63;2.70;;;16.80;99.90;;;;;;5077070;28;20086;-82
2021/08/24 07:57:05;;;;;;;9.05;3.25;;;16.80;99.90;;;;;;5076981;28;20020;-82
2021/08/24 07:59:30;;;;;;;8.48;3.17;;;16.80;99.90;;;;;;5076921;28;20020;-83
2021/08/24 08:01:56;;;;;;;4.95;2.90;;;16.90;99.90;;;;;;5076695;28;20023;-83
2021/08/24 08:04:22;;;;;;;4.50;2.85;;;16.90;99.90;;;;;;5077015;28;20032;-83
2021/08/24 08:06:49;;;;;;;4.22;2.78;;;16.90;99.90;;;;;;5077489;28;20107;-83
2021/08/24 08:09:14;;;;;;;7.10;2.60;;;16.80;99.90;;;;;;5076861;28;20024;-82
2021/08/24 08:11:41;;;;;;;6.50;2.63;;;16.90;99.90;;;;;;5095000;28;20095;-83
2021/08/24 08:14:08;;;;;;;6.45;2.78;;;16.80;99.90;;;;;;5077303;28;20035;-82
2021/08/24 08:16:36;;;;;;;4.43;2.80;;;16.80;99.90;;;;;;5077749;28;20479;-83
2021/08/24 08:19:02;;;;;;;5.55;2.53;;;16.80;99.90;;;;;;5094694;28;20086;-82
2021/08/24 08:21:30;;;;;;;6.05;2.50;;;16.90;99.90;;;;;;5076645;28;20031;-83
2021/08/24 08:23:56;;;;;;;8.77;2.70;;;17.00;99.90;;;;;;5076524;28;20028;-83
2021/08/24 08:26:22;;;;;;;4.97;2.63;;;17.10;99.90;;;;;;5094694;28;20186;-83
2021/08/24 08:28:50;;;;;;;4.25;2.60;;;17.20;99.90;;;;;;5076487;28;20031;-83
2021/08/24 08:31:16;;;;;;;7.43;2.58;;;17.20;99.90;;;;;;5076408;28;20077;-82
2021/08/24 08:33:42;;;;;;;5.13;2.65;;;17.20;99.90;;;;;;5094503;28;20384;-83
2021/08/24 08:36:08;;;;;;;4.97;2.88;;;17.30;99.90;;;;;;5076244;28;20024;-83
2021/08/24 08:38:34;;;;;;;5.75;2.83;;;17.30;99.90;;;;;;5076269;28;20085;-83
2021/08/24 08:41:42;;;;;;;9.77;3.08;;;17.20;99.90;;;;;;5094665;28;20103;-82
2021/08/24 08:44:21;;;;;;;9.40;2.95;;;17.00;99.90;;;;;;5030478;28;20036;-83
2021/08/24 08:47:00;;;;;;;6.75;2.70;;;17.20;99.90;;;;;;5075967;28;20173;-83
2021/08/24 08:49:48;;;;;;;5.32;2.60;;;17.30;99.90;;;;;;5076024;28;20480;-83
2021/08/24 08:52:24;;;;;;;8.00;2.70;;;17.40;99.90;;;;;;5075980;28;20512;-83
2021/08/24 08:55:21;;;;;;;4.50;2.53;;;17.50;99.90;;;;;;5094179;28;20039;-83
2021/08/24 08:58:13;;;;;;;6.43;3.38;;;17.50;99.90;;;;;;5094166;28;20020;-83
2021/08/24 09:00:48;;;;;;;6.50;2.85;;;17.70;99.90;;;;;;5075895;28;20020;-83
2021/08/24 09:03:43;;;;;;;6.32;2.88;;;17.60;99.90;;;;;;5075834;28;20045;-83
2021/08/24 09:06:10;;;;;;;;;;;17.50;99.90;;;;;;5076158;28;20038;-82
2021/08/24 09:08:36;;;;;;;5.22;2.97;;;17.40;99.90;;;;;;5075771;28;19904;-83
2021/08/24 09:11:01;;;;;;;5.75;2.80;;;17.40;99.90;;;;;;5075993;28;20545;-82
2021/08/24 09:13:54;;;;;;;7.50;2.72;;;17.40;99.90;;;;;;5075504;28;20020;-82
2021/08/24 09:16:28;;;;;;;9.70;3.03;;;17.40;99.90;;;;;;5066940;28;20024;-82
2021/08/24 09:19:16;;;;;;;8.10;2.97;;;17.50;99.90;;;;;;5093751;28;20055;-83
2021/08/24 09:21:45;;;;;;;5.88;3.05;;;17.80;99.90;;;;;;5060010;28;20115;-83
2021/08/24 09:24:18;;;;;;;5.93;2.60;;;17.90;99.90;;;;;;5075449;28;20024;-83
2021/08/24 09:26:54;;;;;;;5.53;2.92;;;18.20;99.90;;;;;;5075713;28;20413;-83
2021/08/24 09:29:26;;;;;;;3.33;2.65;;;18.30;99.90;;;;;;5093548;28;20077;-82
2021/08/24 09:31:52;;;;;;;3.58;2.80;;;17.90;99.90;;;;;;5074840;28;20426;-82
2021/08/24 09:34:23;;;;;;;4.65;2.45;;;17.70;99.90;;;;;;5093655;28;20047;-83
2021/08/24 09:36:49;;;;;;;5.55;2.58;;;17.80;99.90;;;;;;5075174;28;20107;-82
2021/08/24 09:39:15;;;;;;;3.30;2.42;;;17.70;99.90;;;;;;5075269;28;20123;-82
2021/08/24 09:41:43;;;;;;;5.65;2.75;;;17.60;99.90;;;;;;5075244;28;20028;-82
2021/08/24 09:44:28;;;;;;;6.40;3.10;;;17.60;99.90;;;;;;5075277;28;20422;-82
2021/08/24 09:47:04;;;;;;;4.15;2.80;;;17.60;99.90;;;;;;5074972;28;20032;-82
2021/08/24 09:49:38;;;;;;;3.80;2.58;;;17.60;99.90;;;;;;5075244;28;20089;-82
2021/08/24 09:52:09;;;;;;;6.32;2.53;;;17.50;99.90;;;;;;5075068;28;20028;-82
2021/08/24 09:54:43;;;;;;;7.97;3.25;;;17.60;99.90;;;;;;5075081;28;20062;-82
2021/08/24 09:57:11;;;;;;;4.95;2.83;;;17.60;99.90;;;;;;5075143;28;20017;-82
2021/08/24 09:59:53;;;;;;;4.35;2.80;;;17.60;99.90;;;;;;5075118;28;20392;-82
2021/08/24 10:02:46;;;;;;;8.65;3.17;;;17.60;99.90;;;;;;5075094;28;20024;-83
2021/08/24 10:05:30;;;;;;;4.20;3.17;;;17.40;99.90;;;;;;5071419;28;20507;-82
2021/08/24 10:07:58;;;;;;;5.97;2.85;;;17.30;99.90;;;;;;5075076;28;20020;-82
2021/08/24 10:10:34;;;;;;;5.15;3.42;;;17.30;99.90;;;;;;5076155;28;20430;-82
2021/08/24 10:13:29;;;;;;;5.68;3.03;;;17.40;99.90;;;;;;5076037;28;20487;-82
2021/08/24 10:16:04;;;;;;;4.50;2.83;;;17.30;99.90;;;;;;5074997;28;20161;-82
2021/08/24 10:18:30;;;;;;;8.05;3.22;;;17.30;99.90;;;;;;5093092;28;20027;-83
2021/08/24 10:21:01;;;;;;;7.22;3.33;;;17.40;99.90;;;;;;5074838;28;20121;-83
2021/08/24 10:23:33;;;;;;;3.47;2.70;;;17.50;99.90;;;;;;5093289;28;20056;-82
2021/08/24 10:26:08;;;;;;;4.97;2.95;;;17.50;99.90;;;;;;5092991;28;20020;-82
2021/08/24 10:28:57;;;;;;;4.25;3.03;;;17.50;99.90;;;;;;5074818;28;20490;-83
2021/08/24 10:31:36;;;;;;;5.15;2.70;;;17.50;99.90;;;;;;5074796;28;20027;-82
2021/08/24 10:34:33;;;;;;;5.68;2.90;;;17.70;99.90;;;;;;5092740;28;20020;-82
2021/08/24 10:37:23;;;;;;;8.52;3.28;;;17.80;99.90;;;;;;5069650;28;20396;-82
2021/08/24 10:39:54;;;;;;;3.95;2.45;;;17.80;99.90;;;;;;5092879;28;20468;-82
2021/08/24 10:42:29;;;;;;;6.07;2.60;;;17.80;99.90;;;;;;5074765;28;20472;-83
2021/08/24 10:45:01;;;;;;;4.65;2.65;;;17.70;99.90;;;;;;5077637;28;20052;-82
2021/08/24 10:47:43;;;;;;;4.18;2.55;;;17.80;99.90;;;;;;5096431;28;20042;-82
2021/08/24 10:50:32;;;;;;;4.78;2.80;;;18.00;99.90;;;;;;5078627;28;20020;-82
2021/08/24 10:53:18;;;;;;;3.33;2.70;;;18.10;99.90;;;;;;5078322;28;20114;-83
2021/08/24 10:55:54;;;;;;;4.78;2.45;;;17.90;99.90;;;;;;5078320;28;20421;-83
2021/08/24 10:58:31;;;;;;;5.03;2.50;;;17.90;99.90;;;;;;5078289;28;20020;-83
2021/08/24 11:01:04;;;;;;;5.18;2.83;;;17.90;99.90;;;;;;5078204;28;20490;-83
2021/08/24 11:03:51;;;;;;;7.10;2.92;;;17.80;99.90;;;;;;5078828;28;20034;-82
2021/08/24 11:06:20;;;;;;;5.25;2.75;;;17.80;99.90;;;;;;5077989;28;20028;-82
2021/08/24 11:09:11;;;;;;;4.70;2.80;;;17.70;99.90;;;;;;5078057;28;20028;-82
2021/08/24 11:12:16;;;;;;;6.70;2.92;;;17.90;99.90;;;;;;5096104;28;20081;-82
2021/08/24 11:15:14;;;;;;;3.28;2.58;;;17.60;99.90;;;;;;5073717;28;20044;-83
2021/08/24 11:18:23;;;;;;;5.22;2.50;;;17.60;99.90;;;;;;5077881;28;20028;-82
2021/08/24 11:21:07;;;;;;;5.13;2.88;;;17.80;99.90;;;;;;5076822;28;20047;-82
2021/08/24 11:23:51;;;;;;;4.45;2.88;;;17.90;99.90;;;;;;5077805;28;20020;-83
2021/08/24 11:26:24;;;;;;;4.93;2.87;;;17.90;99.90;;;;;;5077687;28;20028;-82
2021/08/24 11:29:18;;;;;;;6.15;2.70;;;17.80;99.90;;;;;;5077648;28;20130;-82
2021/08/24 11:31:51;;;;;;;3.65;2.90;;;17.80;99.90;;;;;;5095769;28;20020;-83
2021/08/24 11:34:43;;;;;;;4.88;2.58;;;17.70;99.90;;;;;;5095653;28;20480;-82
2021/08/24 11:37:15;;;;;;;6.40;2.80;;;17.70;99.90;;;;;;5066454;28;20400;-82
2021/08/24 11:39:50;;;;;;;5.93;3.05;;;17.70;99.90;;;;;;5077475;28;20383;-82
2021/08/24 11:42:28;;;;;;;4.32;3.00;;;17.80;99.90;;;;;;5077437;28;20384;-82
2021/08/24 11:44:56;;;;;;;7.22;2.83;;;17.70;99.90;;;;;;5077417;28;20035;-82
2021/08/24 11:47:38;;;;;;;4.78;2.78;;;17.80;99.90;;;;;;5095286;28;20549;-83
2021/08/24 11:50:13;;;;;;;7.13;2.72;;;17.70;99.90;;;;;;5095407;28;20086;-82
2021/08/24 11:52:49;;;;;;;;;;;17.80;99.90;;;;;;5077525;28;20054;-82
2021/08/24 11:55:27;;;;;;;6.38;2.80;;;17.80;99.90;;;;;;5076851;28;19927;-82
2021/08/24 11:58:25;;;;;;;3.42;2.42;;;17.80;99.90;;;;;;5077292;28;20085;-82
2021/08/24 12:01:03;;;;;;;4.82;3.00;;;17.70;99.90;;;;;;5095381;28;20020;-83
2021/08/24 12:03:29;;;;;;;4.60;2.72;;;17.60;99.90;;;;;;5095515;28;20017;-82
2021/08/24 12:06:22;;;;;;;4.78;2.38;;;17.40;99.90;;;;;;5077055;28;20043;-82
2021/08/24 12:08:54;;;;;;;5.45;2.88;;;17.40;99.90;;;;;;5077128;28;20031;-82
2021/08/24 12:11:47;;;;;;;3.95;2.88;;;17.40;99.90;;;;;;5077130;28;20472;-82
2021/08/24 12:14:32;;;;;;;4.13;2.90;;;17.40;99.90;;;;;;5073484;28;20086;-83
2021/08/24 12:17:07;;;;;;;4.03;2.67;;;17.50;99.90;;;;;;5077770;28;20028;-82
2021/08/24 12:19:34;;;;;;;;;;;17.60;99.90;;;;;;5078078;28;20024;-83
2021/08/24 12:22:32;;;;;;;3.75;2.95;;;17.80;99.90;;;;;;5076676;28;20284;-82
2021/08/24 12:25:13;;;;;;;3.47;2.35;;;18.20;99.90;;;;;;5060860;28;20142;-82
2021/08/24 12:27:52;;;;;;;3.88;2.25;;;18.30;99.90;;;;;;5076639;28;20038;-82
2021/08/24 12:30:25;;;;;;;5.78;2.42;;;18.30;99.90;;;;;;5076597;28;20385;-83
2021/08/24 12:32:50;;;;;;;8.27;2.65;;;18.10;99.90;;;;;;5077182;28;20034;-83
2021/08/24 12:35:37;;;;;;;4.80;2.50;;;18.10;99.90;;;;;;5094546;28;20020;-83
2021/08/24 12:38:04;;;;;;;5.07;2.30;;;18.10;99.90;;;;;;5076361;28;20073;-82
2021/08/24 12:40:53;;;;;;;2.85;2.50;;;18.00;99.90;;;;;;5076308;28;20482;-82
2021/08/24 12:43:19;;;;;;;3.33;2.70;;;18.30;99.90;;;;;;5076229;28;20077;-82
2021/08/24 12:45:45;;;;;;;4.90;2.80;;;18.60;99.90;;;;;;5094273;28;20107;-82
2021/08/24 12:48:16;;;;;;;6.57;2.50;;;18.70;99.90;;;;;;5076090;28;20048;-83
2021/08/24 12:51:03;;;;;;;9.77;2.70;;;18.80;99.90;;;;;;5076086;28;20148;-82
2021/08/24 12:53:28;;;;;;;3.42;2.55;;;18.80;99.90;;;;;;5075830;28;20387;-83
2021/08/24 12:55:57;;;;;;;2.55;2.25;;;18.60;99.90;;;;;;5075975;28;20020;-83
2021/08/24 12:58:31;;;;;;;3.50;2.30;;;18.90;99.90;;;;;;5075921;28;20016;-83
2021/08/24 13:01:15;;;;;;;;;;;19.30;99.90;;;;;;5094519;28;20391;-83
2021/08/24 13:04:15;;;;;;;4.93;2.58;;;19.40;99.90;;;;;;5075847;28;20367;-83
2021/08/24 13:06:45;;;;;;;5.30;2.28;;;19.30;99.90;;;;;;5075107;28;20526;-83
2021/08/24 13:09:35;;;;;;;5.18;2.58;;;19.30;99.90;;;;;;5076013;28;20020;-82
2021/08/24 13:12:20;;;;;;;2.55;2.20;;;19.10;99.90;;;;;;5075578;28;20480;-83
2021/08/24 13:14:46;;;;;;;;;;;19.00;99.90;;;;;;5076171;28;20078;-83
2021/08/24 13:17:27;;;;;;;3.35;2.25;;;18.70;99.90;;;;;;5075689;28;19904;-83